Time;durP1;ratioP1;P1;durP2;ratioP2;P2;SDS_P1;SDS_P2;PMS_P1;PMS_P2;Temp;Humidity;BMP_temperature;BMP_pressure;BME280_temperature;BME280_humidity;BME280_pressure;Samples;Min_cycle;Max_cycle;Signal;HPM_P1;HPM_P2
2023/05/01 00:02:03;;;;;;;6.82;1.90;;;;;;;14.20;51.33;100609.06;4131678;28;20184;-66
2023/05/01 00:04:25;;;;;;;3.15;2.00;;;;;;;14.20;51.29;100610.81;4131603;28;20096;-66
2023/05/01 00:06:46;;;;;;;4.00;2.03;;;;;;;14.17;51.76;100605.59;4129103;28;20048;-66
2023/05/01 00:09:08;;;;;;;2.95;1.65;;;;;;;14.16;51.54;100599.47;4131874;28;20069;-66
2023/05/01 00:11:30;;;;;;;4.03;1.60;;;;;;;14.12;51.70;100596.00;4131895;28;20101;-67
2023/05/01 00:13:53;;;;;;;2.13;1.63;;;;;;;14.12;52.01;100595.13;4125627;28;20584;-66
2023/05/01 00:16:16;;;;;;;4.55;2.08;;;;;;;14.12;52.37;100589.91;4117406;28;20053;-66
2023/05/01 00:18:38;;;;;;;4.88;2.45;;;;;;;14.09;51.13;100587.25;4131591;28;20058;-66
2023/05/01 00:20:59;;;;;;;2.25;1.40;;;;;;;14.06;51.70;100585.53;4128264;28;20054;-66
2023/05/01 00:23:21;;;;;;;3.47;1.70;;;;;;;14.03;51.94;100582.91;4131443;28;20060;-66
2023/05/01 00:25:42;;;;;;;3.17;1.83;;;;;;;14.01;52.19;100581.16;4130896;28;20530;-66
2023/05/01 00:28:05;;;;;;;4.13;2.17;;;;;;;13.99;51.61;100583.78;4132010;28;20096;-66
2023/05/01 00:30:28;;;;;;;3.30;1.80;;;;;;;14.01;50.98;100573.31;4129437;28;20044;-66
2023/05/01 00:32:49;;;;;;;4.05;2.35;;;;;;;13.98;50.81;100576.78;4117805;28;20061;-66
2023/05/01 00:35:12;;;;;;;4.40;2.03;;;;;;;14.04;51.19;100575.94;4121382;28;20085;-66
2023/05/01 00:37:33;;;;;;;2.50;1.52;;;;;;;13.99;50.93;100568.09;4120920;28;20050;-68
2023/05/01 00:39:55;;;;;;;3.42;2.25;;;;;;;14.02;51.00;100575.03;4129692;28;20052;-68
2023/05/01 00:42:16;;;;;;;5.07;1.70;;;;;;;14.01;50.98;100562.88;4124378;28;20053;-67
2023/05/01 00:44:38;;;;;;;3.80;1.73;;;;;;;14.03;50.78;100564.63;4124978;28;20053;-67
2023/05/01 00:47:01;;;;;;;3.42;1.98;;;;;;;14.10;50.06;100561.09;4111572;28;20135;-66
2023/05/01 00:49:22;;;;;;;4.72;1.70;;;;;;;14.14;49.75;100557.63;4120599;28;20069;-65
2023/05/01 00:51:45;;;;;;;6.82;1.88;;;;;;;14.16;49.93;100552.41;4117710;28;20058;-65
2023/05/01 00:54:07;;;;;;;3.10;1.70;;;;;;;14.11;49.11;100552.41;4130826;28;20077;-65
2023/05/01 00:56:29;;;;;;;4.88;2.35;;;;;;;14.08;49.63;100551.53;4124423;28;20074;-65
2023/05/01 00:58:52;;;;;;;4.95;2.05;;;;;;;14.09;49.78;100548.94;4118267;28;20146;-65
2023/05/01 01:01:13;;;;;;;4.15;1.92;;;;;;;14.05;49.34;100549.78;4126005;28;20515;-65
2023/05/01 01:03:36;;;;;;;2.88;1.75;;;;;;;14.10;49.37;100544.56;4114640;28;20061;-65
2023/05/01 01:06:06;;;;;;;2.97;1.60;;;;;;;13.98;49.54;100549.78;4121087;28;20097;-65
2023/05/01 01:08:33;;;;;;;5.78;2.28;;;;;;;13.97;49.40;100538.44;4119768;28;20077;-65
2023/05/01 01:11:04;;;;;;;5.75;2.00;;;;;;;13.92;50.15;100534.97;4124216;28;20456;-66
2023/05/01 01:13:31;;;;;;;3.08;1.77;;;;;;;13.94;49.80;100530.59;4118848;28;20136;-65
2023/05/01 01:15:59;;;;;;;1.90;1.50;;;;;;;13.95;49.31;100533.22;4119886;28;20574;-70
2023/05/01 01:18:28;;;;;;;3.33;1.65;;;;;;;13.97;49.77;100530.59;4124892;28;20052;-65
2023/05/01 01:20:57;;;;;;;4.10;1.50;;;;;;;13.88;49.68;100523.63;4116589;28;20109;-66
2023/05/01 01:23:42;;;;;;;2.55;1.70;;;;;;;13.87;49.52;100521.91;4116344;28;20158;-66
2023/05/01 01:26:31;;;;;;;2.88;1.63;;;;;;;13.86;50.08;100522.75;4126294;28;20149;-66
2023/05/01 01:29:28;;;;;;;3.35;1.77;;;;;;;13.83;49.91;100517.53;4118666;28;20046;-67
2023/05/01 01:32:04;;;;;;;3.28;1.67;;;;;;;13.95;49.44;100520.16;4117433;28;20129;-66
2023/05/01 01:34:33;;;;;;;3.42;1.83;;;;;;;13.74;49.73;100530.56;4122408;28;20049;-66
2023/05/01 01:37:01;;;;;;;4.15;1.90;;;;;;;13.71;49.79;100522.72;4116275;28;20053;-66
2023/05/01 01:39:30;;;;;;;4.45;1.80;;;;;;;13.73;50.05;100523.59;4127888;28;20143;-67
2023/05/01 01:41:54;;;;;;;6.35;2.15;;;;;;;13.70;51.02;100526.22;4119812;28;20082;-66
2023/05/01 01:44:20;;;;;;;5.18;1.92;;;;;;;13.70;50.84;100523.59;4123538;28;20129;-66
2023/05/01 01:46:42;;;;;;;1.92;1.40;;;;;;;13.70;51.09;100523.59;4127777;28;20052;-66
2023/05/01 01:49:07;;;;;;;3.55;1.98;;;;;;;13.66;50.86;100527.94;4120149;28;20141;-66
2023/05/01 01:51:31;;;;;;;3.10;1.70;;;;;;;13.61;51.40;100530.53;4117320;28;20142;-66
2023/05/01 01:53:56;;;;;;;1.65;1.45;;;;;;;13.57;52.22;100534.00;4118088;28;20489;-66
2023/05/01 01:56:21;;;;;;;2.88;1.60;;;;;;;13.49;52.87;100540.06;4131110;28;20084;-66
2023/05/01 01:58:45;;;;;;;2.80;1.63;;;;;;;13.41;53.77;100538.31;4115578;28;20065;-66
2023/05/01 02:01:08;;;;;;;4.18;1.90;;;;;;;13.38;54.38;100537.44;4126932;28;20046;-66
2023/05/01 02:03:31;;;;;;;3.47;1.80;;;;;;;13.36;54.11;100536.53;4116824;28;20157;-66
2023/05/01 02:05:55;;;;;;;3.15;1.67;;;;;;;13.34;55.06;100536.53;4117848;28;20086;-66
2023/05/01 02:08:20;;;;;;;4.10;1.80;;;;;;;13.36;56.02;100533.91;4122150;28;20543;-66
2023/05/01 02:10:43;;;;;;;5.97;2.10;;;;;;;13.33;57.27;100531.28;4125430;28;20089;-66
2023/05/01 02:13:05;;;;;;;2.85;2.00;;;;;;;13.34;57.72;100525.19;4112228;28;20158;-66
2023/05/01 02:15:28;;;;;;;4.35;2.25;;;;;;;13.36;57.85;100529.59;4123627;28;20069;-66
2023/05/01 02:17:51;;;;;;;4.32;2.00;;;;;;;13.35;57.80;100526.97;4116694;28;20053;-66
2023/05/01 02:20:13;;;;;;;3.33;2.13;;;;;;;13.31;58.21;100531.25;4113202;28;20056;-66
2023/05/01 02:22:37;;;;;;;5.57;2.00;;;;;;;13.32;57.96;100524.31;4116359;28;20054;-66
2023/05/01 02:25:01;;;;;;;3.45;2.10;;;;;;;13.33;58.00;100531.28;4117071;28;20130;-66
2023/05/01 02:27:25;;;;;;;3.55;2.28;;;;;;;13.34;57.78;100530.41;4120248;28;20097;-67
2023/05/01 02:29:46;;;;;;;3.20;1.90;;;;;;;13.31;57.62;100527.78;4126488;28;20125;-66
2023/05/01 02:32:08;;;;;;;2.92;1.90;;;;;;;13.27;56.50;100522.56;4116310;28;20045;-67
2023/05/01 02:34:30;;;;;;;2.58;1.70;;;;;;;13.23;56.12;100523.41;4117617;28;20058;-66
2023/05/01 02:36:52;;;;;;;3.33;2.00;;;;;;;13.20;55.75;100523.41;4115746;28;20094;-66
2023/05/01 02:39:14;;;;;;;3.28;1.83;;;;;;;13.16;55.80;100521.63;4123355;28;20101;-67
2023/05/01 02:41:40;;;;;;;2.65;1.92;;;;;;;13.14;55.65;100518.16;4121704;28;20049;-67
2023/05/01 02:44:03;;;;;;;3.95;1.95;;;;;;;13.10;55.80;100516.41;4107138;28;20108;-67
2023/05/01 02:46:27;;;;;;;3.60;1.80;;;;;;;13.08;56.16;100505.94;4130576;28;20052;-67
2023/05/01 02:48:50;;;;;;;3.65;2.15;;;;;;;13.09;56.47;100504.19;4118320;28;20129;-66
2023/05/01 02:51:13;;;;;;;3.83;2.15;;;;;;;13.05;57.18;100502.44;4116789;28;20511;-66
2023/05/01 02:53:35;;;;;;;4.22;2.30;;;;;;;13.05;57.19;100507.66;4116729;28;20114;-67
2023/05/01 02:56:08;;;;;;;4.40;2.20;;;;;;;13.04;58.51;100503.28;4130060;28;20096;-66
2023/05/01 02:58:32;;;;;;;3.28;2.08;;;;;;;13.02;58.13;100508.50;4119331;28;20057;-66
2023/05/01 03:00:53;;;;;;;4.45;2.08;;;;;;;12.99;59.07;100497.19;4116473;28;20057;-67
2023/05/01 03:03:15;;;;;;;3.20;2.10;;;;;;;12.95;59.28;100503.25;4122865;28;20090;-67
2023/05/01 03:05:37;;;;;;;3.65;2.40;;;;;;;12.93;60.16;100504.13;4127782;28;20209;-67
2023/05/01 03:07:59;;;;;;;3.28;2.10;;;;;;;12.87;60.28;100498.88;4129190;28;20053;-67
2023/05/01 03:10:20;;;;;;;4.50;2.30;;;;;;;12.81;59.39;100492.75;4116789;28;20093;-67
2023/05/01 03:12:43;;;;;;;3.80;2.50;;;;;;;12.75;59.91;100493.59;4121871;28;20108;-67
2023/05/01 03:15:07;;;;;;;4.40;2.13;;;;;;;12.81;59.21;100497.97;4113071;28;20145;-67
2023/05/01 03:17:28;;;;;;;3.75;2.17;;;;;;;12.77;59.17;100491.84;4115763;28;20078;-67
2023/05/01 03:19:50;;;;;;;3.42;2.22;;;;;;;12.79;59.12;100489.25;4117634;28;20054;-67
2023/05/01 03:22:11;;;;;;;3.45;2.10;;;;;;;12.76;58.84;100487.50;4128734;28;20463;-67
2023/05/01 03:24:33;;;;;;;2.28;1.90;;;;;;;12.78;59.00;100483.19;4118111;28;20057;-66
2023/05/01 03:26:54;;;;;;;3.47;2.20;;;;;;;12.80;58.82;100481.44;4121835;28;20049;-67
2023/05/01 03:29:16;;;;;;;2.42;1.92;;;;;;;12.79;59.18;100492.75;4128399;28;20566;-67
2023/05/01 03:31:39;;;;;;;3.53;2.30;;;;;;;12.80;60.05;100485.78;4129771;28;20089;-67
2023/05/01 03:34:02;;;;;;;3.70;2.50;;;;;;;12.83;59.30;100477.97;4126272;28;20061;-68
2023/05/01 03:36:24;;;;;;;3.85;2.25;;;;;;;12.80;59.31;100486.66;4131366;28;20089;-67
2023/05/01 03:38:47;;;;;;;4.95;2.13;;;;;;;12.80;60.13;100485.78;4104987;28;20058;-70
2023/05/01 03:41:27;;;;;;;3.05;2.17;;;;;;;12.74;61.22;100484.88;4129430;28;20049;-66
2023/05/01 03:44:14;;;;;;;3.72;2.30;;;;;;;12.72;60.80;100481.41;4124203;28;20077;-66
2023/05/01 03:46:39;;;;;;;4.07;2.40;;;;;;;12.77;60.57;100486.63;4122358;28;20073;-66
2023/05/01 03:49:04;;;;;;;5.85;2.58;;;;;;;12.73;61.09;100484.88;4131788;28;20049;-66
2023/05/01 03:51:31;;;;;;;4.45;2.13;;;;;;;12.71;61.20;100477.03;4119719;28;20191;-66
2023/05/01 03:53:55;;;;;;;5.35;2.25;;;;;;;12.70;61.62;100483.13;4119553;28;20460;-67
2023/05/01 03:56:16;;;;;;;5.65;2.83;;;;;;;12.70;61.47;100477.03;4124650;28;20555;-66
2023/05/01 03:58:37;;;;;;;5.80;3.00;;;;;;;12.67;61.97;100479.63;4122751;28;20073;-66
2023/05/01 04:00:59;;;;;;;5.45;2.92;;;;;;;12.64;61.87;100474.41;4111996;28;20528;-66
2023/05/01 04:03:22;;;;;;;4.88;2.35;;;;;;;12.65;62.20;100479.63;4128337;28;20109;-67
2023/05/01 04:05:46;;;;;;;5.32;2.30;;;;;;;12.63;62.55;100473.53;4121088;28;20126;-66
2023/05/01 04:08:07;;;;;;;5.18;2.60;;;;;;;12.59;62.63;100471.75;4125598;28;20158;-66
2023/05/01 04:10:29;;;;;;;5.65;2.85;;;;;;;12.58;62.68;100472.63;4124673;28;20054;-66
2023/05/01 04:12:55;;;;;;;9.52;3.05;;;;;;;12.55;62.33;100476.06;4118013;28;20073;-66
2023/05/01 04:15:17;;;;;;;4.47;2.45;;;;;;;12.57;62.46;100470.88;4118975;28;20166;-67
2023/05/01 04:17:39;;;;;;;4.13;2.53;;;;;;;12.60;62.37;100477.84;4120666;28;20065;-67
2023/05/01 04:20:03;;;;;;;9.10;3.30;;;;;;;12.61;62.79;100479.59;4126092;28;20138;-67
2023/05/01 04:22:25;;;;;;;4.15;3.35;;;;;;;12.61;62.64;100470.03;4117373;28;20065;-67
2023/05/01 04:24:47;;;;;;;5.50;2.63;;;;;;;12.64;62.76;100469.19;4117699;28;20097;-67
2023/05/01 04:27:08;;;;;;;4.00;2.72;;;;;;;12.65;62.62;100477.00;4115357;28;20085;-67
2023/05/01 04:29:30;;;;;;;5.18;2.60;;;;;;;12.61;62.69;100469.16;4119401;28;20101;-67
2023/05/01 04:31:51;;;;;;;4.93;3.10;;;;;;;12.57;62.41;100469.16;4123836;28;20463;-67
2023/05/01 04:34:13;;;;;;;5.05;3.00;;;;;;;12.60;62.78;100470.91;4116436;28;20109;-67
2023/05/01 04:36:36;;;;;;;3.63;2.40;;;;;;;12.64;62.92;100477.88;4119946;28;20049;-67
2023/05/01 04:38:58;;;;;;;4.65;2.60;;;;;;;12.63;62.74;100477.84;4116309;28;20062;-67
2023/05/01 04:41:20;;;;;;;6.85;3.03;;;;;;;12.63;62.67;100473.53;4130692;28;20148;-66
2023/05/01 04:43:41;;;;;;;5.45;3.17;;;;;;;12.65;63.05;100482.22;4122145;28;20205;-67
2023/05/01 04:46:03;;;;;;;3.45;2.63;;;;;;;12.69;62.44;100483.13;4111932;28;20076;-67
2023/05/01 04:48:25;;;;;;;4.88;2.80;;;;;;;12.77;61.63;100477.94;4120672;28;20586;-67
2023/05/01 04:50:46;;;;;;;4.68;3.28;;;;;;;12.82;61.77;100481.44;4121700;28;20109;-67
2023/05/01 04:53:09;;;;;;;6.20;3.00;;;;;;;12.84;61.61;100483.19;4126116;28;20145;-67
2023/05/01 04:55:30;;;;;;;9.38;3.67;;;;;;;12.90;59.86;100478.00;4116555;28;20086;-66
2023/05/01 04:57:59;;;;;;;7.35;3.28;;;;;;;12.99;59.23;100476.31;4112681;28;20050;-66
2023/05/01 05:00:20;;;;;;;3.97;2.90;;;;;;;12.97;59.20;100480.66;4129861;28;20129;-66
2023/05/01 05:02:48;;;;;;;11.75;3.65;;;;;;;12.97;60.13;100480.66;4125810;28;20058;-66
2023/05/01 05:05:09;;;;;;;8.05;3.78;;;;;;;12.99;59.58;100481.53;4125216;28;20045;-66
2023/05/01 05:07:30;;;;;;;7.10;3.33;;;;;;;13.04;59.25;100471.97;4115599;28;20099;-66
2023/05/01 05:10:22;;;;;;;6.60;3.75;;;;;;;12.97;59.19;100467.63;4126050;28;20085;-66
2023/05/01 05:12:56;;;;;;;5.22;3.58;;;;;;;13.09;58.25;100480.72;4094685;28;20110;-62
2023/05/01 05:15:18;;;;;;;6.57;3.47;;;;;;;13.04;58.22;100480.69;4098394;29;20088;-63
2023/05/01 05:17:40;;;;;;;5.07;2.78;;;;;;;13.01;58.17;100475.47;4097216;29;20054;-62
2023/05/01 05:20:02;;;;;;;6.72;3.65;;;;;;;13.00;58.32;100475.47;4097316;29;20500;-63
2023/05/01 05:22:25;;;;;;;5.57;3.42;;;;;;;13.12;57.52;100480.72;4079225;29;20058;-62
2023/05/01 05:25:10;;;;;;;5.60;3.58;;;;;;;13.23;56.96;100481.63;4080095;29;20563;-62
2023/05/01 05:27:35;;;;;;;6.30;3.65;;;;;;;13.12;56.81;100487.69;4080432;29;20106;-62
2023/05/01 05:29:59;;;;;;;6.22;3.80;;;;;;;13.11;57.36;100481.56;4067819;29;20561;-62
2023/05/01 05:32:20;;;;;;;8.50;3.83;;;;;;;13.20;57.21;100481.63;4063729;29;20474;-62
2023/05/01 05:34:41;;;;;;;5.10;2.97;;;;;;;13.18;56.81;100482.47;4067729;29;20216;-63
2023/05/01 05:37:03;;;;;;;5.75;3.40;;;;;;;13.23;56.78;100481.63;4077268;29;20054;-62
2023/05/01 05:39:26;;;;;;;4.85;3.05;;;;;;;13.18;56.48;100483.34;4067428;29;20058;-62
2023/05/01 05:41:48;;;;;;;6.15;3.33;;;;;;;13.15;56.03;100478.13;4067690;29;20418;-62
2023/05/01 05:44:10;;;;;;;5.82;3.38;;;;;;;13.15;56.60;100483.34;4077474;29;20054;-62
2023/05/01 05:46:32;;;;;;;6.72;3.15;;;;;;;13.16;56.46;100477.25;4068227;29;20312;-62
2023/05/01 05:48:54;;;;;;;5.20;3.40;;;;;;;13.14;57.12;100478.13;4075871;29;20139;-62
2023/05/01 05:51:16;;;;;;;5.72;3.30;;;;;;;13.11;57.05;100473.75;4067547;29;20112;-62
2023/05/01 05:53:38;;;;;;;6.63;3.30;;;;;;;13.17;57.03;100481.63;4066775;29;20100;-62
2023/05/01 05:56:00;;;;;;;6.30;3.47;;;;;;;13.19;57.18;100479.03;4067208;29;20138;-62
2023/05/01 05:58:24;;;;;;;11.90;4.50;;;;;;;13.27;56.86;100478.19;4080004;29;20050;-62
2023/05/01 06:00:47;;;;;;;6.80;3.83;;;;;;;13.34;56.13;100475.59;4082810;29;20054;-62
2023/05/01 06:03:10;;;;;;;6.30;3.80;;;;;;;13.31;56.49;100473.81;4082460;29;20521;-62
2023/05/01 06:05:32;;;;;;;8.40;3.95;;;;;;;13.36;56.07;100472.16;4068215;29;20054;-62
2023/05/01 06:07:53;;;;;;;8.93;3.78;;;;;;;13.31;56.32;100478.19;4066655;29;20471;-62
2023/05/01 06:10:15;;;;;;;7.45;4.25;;;;;;;13.41;56.40;100483.47;4081010;29;20087;-63
2023/05/01 06:12:37;;;;;;;6.50;3.20;;;;;;;13.37;57.02;100470.41;4079768;29;20146;-62
2023/05/01 06:15:02;;;;;;;7.55;3.60;;;;;;;13.46;56.53;100467.81;4077257;29;20130;-62
2023/05/01 06:17:25;;;;;;;8.48;3.45;;;;;;;13.50;56.28;100469.56;4066218;29;20143;-62
2023/05/01 06:19:47;;;;;;;6.97;4.63;;;;;;;13.50;56.53;100469.56;4067256;29;20095;-62
2023/05/01 06:22:09;;;;;;;6.45;3.33;;;;;;;13.48;56.85;100470.41;4078794;29;20062;-62
2023/05/01 06:24:39;;;;;;;7.63;4.15;;;;;;;13.55;56.68;100470.44;4079150;29;20062;-62
2023/05/01 06:27:02;;;;;;;5.78;4.10;;;;;;;13.63;55.98;100469.59;4079113;29;20074;-63
2023/05/01 06:29:24;;;;;;;6.53;4.28;;;;;;;13.63;56.56;100469.59;4079999;29;20418;-63
2023/05/01 06:31:46;;;;;;;6.07;3.65;;;;;;;13.71;56.53;100473.06;4079596;29;20422;-62
2023/05/01 06:34:07;;;;;;;5.70;3.83;;;;;;;13.71;56.98;100467.84;4081523;29;20457;-61
2023/05/01 06:36:41;;;;;;;7.28;4.60;;;;;;;13.79;56.45;100464.38;4078668;29;20081;-61
2023/05/01 06:39:03;;;;;;;8.63;3.80;;;;;;;13.77;56.23;100457.44;4067637;29;20101;-61
2023/05/01 06:41:25;;;;;;;8.23;4.43;;;;;;;13.78;56.50;100456.53;4081185;29;20059;-61
2023/05/01 06:43:47;;;;;;;9.98;3.97;;;;;;;13.70;56.43;100455.69;4081224;29;20117;-62
2023/05/01 06:46:11;;;;;;;7.93;4.30;;;;;;;13.79;57.05;100463.50;4075695;29;20087;-62
2023/05/01 06:48:33;;;;;;;10.63;3.60;;;;;;;13.80;55.92;100460.03;4066243;29;20063;-61
2023/05/01 06:50:55;;;;;;;4.85;3.20;;;;;;;13.78;56.37;100464.38;4078735;29;20050;-61
2023/05/01 06:53:18;;;;;;;5.45;3.85;;;;;;;13.87;56.54;100464.41;4078270;29;20054;-61
2023/05/01 06:55:39;;;;;;;6.75;3.25;;;;;;;13.76;57.51;100468.75;4080099;29;20441;-60
2023/05/01 06:58:02;;;;;;;5.30;3.10;;;;;;;13.84;57.27;100468.75;4081400;29;20055;-60
2023/05/01 07:00:42;;;;;;;5.07;3.65;;;;;;;13.89;57.21;100469.63;4078194;29;20063;-57
2023/05/01 07:03:04;;;;;;;5.15;3.20;;;;;;;13.90;56.94;100467.03;4075842;29;20075;-57
2023/05/01 07:05:25;;;;;;;5.65;3.28;;;;;;;13.98;57.37;100466.16;4076263;29;20051;-58
2023/05/01 07:07:48;;;;;;;9.00;3.35;;;;;;;13.95;56.81;100467.88;4085233;29;20135;-59
2023/05/01 07:10:22;;;;;;;5.15;3.28;;;;;;;14.03;57.51;100470.50;4082705;29;20058;-60
2023/05/01 07:12:45;;;;;;;7.30;4.05;;;;;;;14.20;56.20;100472.25;4083300;29;20556;-59
2023/05/01 07:15:07;;;;;;;5.53;3.45;;;;;;;14.23;56.24;100475.72;4080892;29;20067;-59
2023/05/01 07:17:29;;;;;;;6.10;3.35;;;;;;;14.21;56.08;100474.00;4081196;29;20062;-60
2023/05/01 07:19:50;;;;;;;9.20;4.30;;;;;;;14.25;56.02;100470.47;4066794;29;20099;-60
2023/05/01 07:22:12;;;;;;;6.03;3.75;;;;;;;14.29;56.23;100475.72;4083699;29;20581;-60
2023/05/01 07:24:34;;;;;;;6.93;3.30;;;;;;;14.31;56.81;100476.59;4084850;29;20054;-62
2023/05/01 07:26:57;;;;;;;6.20;3.58;;;;;;;14.31;57.31;100476.59;4084838;29;20190;-61
2023/05/01 07:29:18;;;;;;;6.35;3.70;;;;;;;14.36;57.37;100473.09;4081531;29;20094;-64
2023/05/01 07:31:40;;;;;;;5.97;3.95;;;;;;;14.43;57.62;100474.84;4084588;29;20115;-59
2023/05/01 07:34:02;;;;;;;5.45;3.92;;;;;;;14.42;56.56;100478.31;4067318;29;20092;-59
2023/05/01 07:36:24;;;;;;;5.95;4.00;;;;;;;14.39;56.95;100478.34;4083908;29;20165;-61
2023/05/01 07:38:45;;;;;;;5.95;3.80;;;;;;;14.42;57.31;100476.56;4083490;29;20127;-61
2023/05/01 07:41:07;;;;;;;4.80;3.13;;;;;;;14.50;56.95;100471.34;4079318;29;20114;-60
2023/05/01 07:43:30;;;;;;;5.65;3.78;;;;;;;14.51;57.00;100474.81;4084412;29;20510;-60
2023/05/01 07:45:57;;;;;;;7.30;3.83;;;;;;;14.57;56.56;100464.34;4085536;29;20517;-60
2023/05/01 07:48:19;;;;;;;9.00;4.53;;;;;;;14.81;56.44;100468.69;4085637;29;20095;-60
2023/05/01 07:50:40;;;;;;;7.18;4.30;;;;;;;14.76;55.47;100465.19;4081696;29;20122;-62
2023/05/01 07:53:01;;;;;;;7.85;4.05;;;;;;;14.80;55.50;100465.16;4083586;29;20576;-61
2023/05/01 07:55:23;;;;;;;7.57;4.65;;;;;;;14.91;55.78;100459.91;4081550;29;20596;-61
2023/05/01 07:57:45;;;;;;;5.13;3.53;;;;;;;14.92;56.58;100459.06;4082453;29;20103;-61
2023/05/01 08:00:09;;;;;;;7.88;4.20;;;;;;;14.99;55.43;100457.25;4070194;29;20059;-61
2023/05/01 08:02:36;;;;;;;6.47;4.07;;;;;;;15.10;54.15;100459.81;4080450;29;20051;-61
2023/05/01 08:04:57;;;;;;;5.72;3.22;;;;;;;15.13;55.40;100459.84;4072640;29;20067;-60
2023/05/01 08:07:19;;;;;;;9.10;4.43;;;;;;;15.17;56.42;100454.56;4084791;29;20115;-60
2023/05/01 08:09:40;;;;;;;6.78;3.92;;;;;;;15.23;53.40;100456.28;4085407;29;20054;-61
2023/05/01 08:12:02;;;;;;;6.10;3.15;;;;;;;15.25;52.64;100467.63;4085176;29;20062;-61
2023/05/01 08:14:24;;;;;;;7.50;3.08;;;;;;;15.28;52.75;100477.22;4085487;29;20071;-62
2023/05/01 08:16:46;;;;;;;7.30;3.65;;;;;;;15.35;53.09;100471.94;4070591;29;20068;-62
2023/05/01 08:19:08;;;;;;;9.65;4.70;;;;;;;15.45;52.99;100470.16;4085576;29;20573;-62
2023/05/01 08:21:30;;;;;;;6.85;4.10;;;;;;;15.42;53.88;100467.53;4084873;29;20095;-62
2023/05/01 08:23:51;;;;;;;7.30;5.10;;;;;;;15.44;53.51;100478.00;4085205;29;20051;-62
2023/05/01 08:26:12;;;;;;;12.18;5.88;;;;;;;15.36;54.26;100476.31;4072070;29;20135;-62
2023/05/01 08:28:36;;;;;;;10.50;5.65;;;;;;;15.30;54.22;100475.44;4085665;29;20054;-63
2023/05/01 08:30:57;;;;;;;7.50;4.10;;;;;;;15.30;53.24;100468.47;4081789;29;20054;-63
2023/05/01 08:33:06;;;;;;;6.35;4.20;;;;;;;15.44;54.42;100470.16;4082136;29;20091;-63
2023/05/01 08:35:15;;;;;;;6.55;3.72;;;;;;;15.49;54.19;100471.88;4084093;29;20054;-63
2023/05/01 08:37:18;;;;;;;7.18;3.97;;;;;;;15.61;53.55;100478.78;4084989;29;20071;-63
2023/05/01 08:39:21;;;;;;;8.55;4.63;;;;;;;15.63;53.66;100466.53;4077052;29;20410;-64
2023/05/01 08:41:25;;;;;;;7.57;4.20;;;;;;;15.81;53.23;100468.22;4074932;29;20068;-62
2023/05/01 08:43:30;;;;;;;6.80;4.55;;;;;;;16.02;50.84;100467.16;4078667;29;21017;-63
2023/05/01 08:45:36;;;;;;;8.52;4.57;;;;;;;15.94;51.48;100460.25;4067420;29;20067;-62
2023/05/01 08:47:41;;;;;;;8.45;4.28;;;;;;;15.87;50.64;100465.53;4080028;29;20083;-62
2023/05/01 08:49:49;;;;;;;7.53;4.45;;;;;;;15.97;51.25;100468.06;4077478;29;20154;-62
2023/05/01 08:51:55;;;;;;;6.63;4.38;;;;;;;15.99;51.39;100468.91;4085086;29;20493;-63
2023/05/01 08:54:01;;;;;;;7.93;4.40;;;;;;;16.06;51.16;100468.00;4067766;29;20562;-62
2023/05/01 08:56:06;;;;;;;6.97;4.63;;;;;;;16.17;50.71;100462.66;4084623;29;20071;-63
2023/05/01 08:58:09;;;;;;;;;;;;;;;16.12;50.58;100467.06;4083842;29;20490;-63
2023/05/01 09:00:17;;;;;;;6.95;3.95;;;;;;;16.09;50.79;100461.84;4063580;29;19979;-63
2023/05/01 09:02:23;;;;;;;9.40;4.50;;;;;;;16.26;51.08;100459.94;4078749;29;20040;-63
2023/05/01 09:04:30;;;;;;;4.38;3.55;;;;;;;16.35;50.09;100454.63;4081771;29;20099;-62
2023/05/01 09:06:35;;;;;;;4.90;3.35;;;;;;;16.28;49.79;100454.69;4074996;29;20469;-62
2023/05/01 09:08:38;;;;;;;8.45;4.03;;;;;;;16.38;48.85;100458.97;4082012;29;20044;-62
2023/05/01 09:10:45;;;;;;;6.78;3.30;;;;;;;16.11;49.02;100462.72;4076249;29;20044;-61
2023/05/01 09:12:55;;;;;;;7.40;3.28;;;;;;;16.10;49.54;100469.72;4066699;29;20490;-62
2023/05/01 09:14:57;;;;;;;4.75;3.38;;;;;;;16.08;49.04;100467.97;4084446;29;20036;-61
2023/05/01 09:17:01;;;;;;;5.65;3.20;;;;;;;16.22;49.21;100463.47;4085328;29;20068;-61
2023/05/01 09:19:04;;;;;;;7.22;4.22;;;;;;;16.30;48.29;100459.03;4084439;29;20042;-61
2023/05/01 09:21:07;;;;;;;7.68;3.55;;;;;;;16.39;48.56;100461.56;4062400;29;20380;-61
2023/05/01 09:23:11;;;;;;;5.00;3.22;;;;;;;16.64;46.56;100450.81;4074542;29;20035;-61
2023/05/01 09:25:14;;;;;;;4.78;2.88;;;;;;;16.86;46.66;100450.59;4082715;29;20337;-61
2023/05/01 09:27:18;;;;;;;8.52;4.00;;;;;;;17.32;44.91;100450.03;4068879;29;20103;-62
2023/05/01 09:29:37;;;;;;;4.18;3.00;;;;;;;17.48;45.63;100449.81;4072080;29;20071;-61
2023/05/01 09:31:40;;;;;;;4.88;3.33;;;;;;;17.57;44.82;100441.81;4081885;29;20100;-64
2023/05/01 09:33:52;;;;;;;6.03;3.10;;;;;;;17.80;43.87;100447.56;4074787;29;20479;-61
2023/05/01 09:35:58;;;;;;;5.60;3.25;;;;;;;17.73;43.13;100451.19;4081917;29;20057;-62
2023/05/01 09:38:01;;;;;;;5.25;3.42;;;;;;;17.87;42.58;100445.72;4077269;29;20045;-61
2023/05/01 09:40:07;;;;;;;6.30;4.35;;;;;;;17.96;42.64;100437.69;4079557;29;20046;-61
2023/05/01 09:42:11;;;;;;;5.75;3.33;;;;;;;17.97;43.65;100443.81;4081447;29;20047;-61
2023/05/01 09:44:18;;;;;;;7.93;3.53;;;;;;;17.76;42.62;100445.88;4080762;29;20134;-61
2023/05/01 09:46:23;;;;;;;7.45;4.35;;;;;;;17.60;43.54;100441.75;4082847;29;20075;-60
2023/05/01 09:48:26;;;;;;;7.15;3.97;;;;;;;17.73;42.55;100448.56;4082935;29;20462;-60
2023/05/01 09:50:30;;;;;;;4.35;3.05;;;;;;;17.63;43.26;100445.19;4083061;29;20040;-60
2023/05/01 09:52:33;;;;;;;7.55;4.28;;;;;;;17.57;43.90;100439.16;4077391;29;20048;-59
2023/05/01 09:54:36;;;;;;;4.75;3.45;;;;;;;17.75;42.41;100430.13;4082782;29;20502;-60
2023/05/01 09:56:48;;;;;;;6.57;3.80;;;;;;;17.88;41.79;100430.78;4066161;29;20500;-61
2023/05/01 09:58:52;;;;;;;6.47;3.78;;;;;;;17.88;42.27;100430.78;4083495;29;20565;-60
2023/05/01 10:00:55;;;;;;;8.60;3.88;;;;;;;17.84;42.44;100437.00;4082682;29;20127;-60
2023/05/01 10:02:58;;;;;;;4.93;2.88;;;;;;;17.85;42.74;100428.22;4082720;29;20163;-60
2023/05/01 10:05:01;;;;;;;4.60;3.05;;;;;;;18.00;43.91;100435.88;4081545;29;20127;-60
2023/05/01 10:07:14;;;;;;;5.65;3.67;;;;;;;18.12;43.01;100433.03;4081050;29;20046;-60
2023/05/01 10:09:27;;;;;;;4.97;3.60;;;;;;;18.27;41.32;100431.03;4082846;29;20058;-60
2023/05/01 10:11:30;;;;;;;5.40;2.90;;;;;;;18.08;42.15;100431.34;4083079;29;20048;-61
2023/05/01 10:13:35;;;;;;;3.70;3.00;;;;;;;17.86;44.08;100436.09;4081924;29;20040;-60
2023/05/01 10:15:38;;;;;;;7.28;3.17;;;;;;;18.04;43.07;100445.44;4084407;29;20043;-60
2023/05/01 10:17:42;;;;;;;7.63;3.20;;;;;;;18.22;43.48;100440.78;4066541;29;20044;-61
2023/05/01 10:19:46;;;;;;;6.80;3.40;;;;;;;18.36;42.29;100446.66;4074341;29;20398;-61
2023/05/01 10:21:49;;;;;;;7.25;2.65;;;;;;;18.56;42.21;100442.78;4060021;29;20048;-61
2023/05/01 10:23:52;;;;;;;4.28;2.70;;;;;;;18.63;42.39;100444.41;4082874;29;20083;-60
2023/05/01 10:25:57;;;;;;;5.28;3.50;;;;;;;18.54;42.02;100444.56;4081248;29;20039;-60
2023/05/01 10:28:02;;;;;;;5.85;3.97;;;;;;;18.65;41.27;100432.94;4082609;29;20040;-60
2023/05/01 10:30:09;;;;;;;5.57;3.25;;;;;;;18.66;41.79;100433.78;4082842;29;20054;-61
2023/05/01 10:32:13;;;;;;;5.20;3.10;;;;;;;18.54;43.56;100437.53;4082771;29;20048;-60
2023/05/01 10:34:19;;;;;;;5.37;3.73;;;;;;;18.60;42.57;100431.28;4077091;29;20094;-60
2023/05/01 10:36:28;;;;;;;6.03;3.15;;;;;;;18.75;44.49;100433.63;4083141;29;20782;-60
2023/05/01 10:38:33;;;;;;;6.85;3.95;;;;;;;18.98;41.80;100430.56;4082955;29;20071;-61
2023/05/01 10:40:47;;;;;;;4.97;3.28;;;;;;;18.96;41.54;100437.63;4079602;29;20505;-61
2023/05/01 10:43:15;;;;;;;6.97;3.90;;;;;;;18.99;40.91;100441.97;4081245;29;20048;-61
2023/05/01 10:45:29;;;;;;;6.10;3.72;;;;;;;19.05;41.51;100427.78;4065568;29;20087;-61
2023/05/01 10:47:44;;;;;;;6.10;3.27;;;;;;;19.05;43.05;100430.44;4081788;29;20039;-61
2023/05/01 10:50:04;;;;;;;6.10;3.53;;;;;;;19.16;41.66;100423.16;4086866;29;20138;-60